Time;durP1;ratioP1;P1;durP2;ratioP2;P2;SDS_P1;SDS_P2;PMS_P1;PMS_P2;Temp;Humidity;BMP_temperature;BMP_pressure;BME280_temperature;BME280_humidity;BME280_pressure;Samples;Min_cycle;Max_cycle;Signal;HPM_P1;HPM_P2
2024/01/26 00:01:16;;;;;;;;;;;;;;;3.28;100.00;101700.25;5034107;28;19932;-78
2024/01/26 00:03:51;;;;;;;;;;;;;;;3.32;100.00;101696.13;5038182;28;19924;-79
2024/01/26 00:06:19;;;;;;;;;;;;;;;3.28;100.00;101697.56;5018090;28;19921;-78
2024/01/26 00:08:52;;;;;;;;;;;;;;;3.26;100.00;101695.09;5035420;28;19928;-78
2024/01/26 00:11:20;;;;;;;;;;;;;;;3.30;100.00;101685.56;5040036;28;19929;-79
2024/01/26 00:13:55;;;;;;;;;;;;;;;3.29;100.00;101683.91;5038467;28;19925;-78
2024/01/26 00:16:27;;;;;;;;;;;;;;;3.33;100.00;101679.78;5039300;28;19925;-78
2024/01/26 00:19:00;;;;;;;;;;;;;;;3.32;100.00;101678.09;5038000;28;19925;-79
2024/01/26 00:21:33;;;;;;;;;;;;;;;3.37;100.00;101677.47;5036966;28;19948;-78
2024/01/26 00:24:01;;;;;;;;;;;;;;;3.30;100.00;101669.44;5038344;28;20384;-78
2024/01/26 00:26:29;;;;;;;;;;;;;;;3.34;100.00;101676.06;5037316;28;19931;-79
2024/01/26 00:28:59;;;;;;;;;;;;;;;3.39;100.00;101664.66;5019539;28;19925;-78
2024/01/26 00:31:32;;;;;;;;;;;;;;;3.34;100.00;101676.06;5033199;28;20020;-79
2024/01/26 00:34:04;;;;;;;;;;;;;;;3.29;100.00;101659.69;5037938;28;19932;-78
2024/01/26 00:36:32;;;;;;;;;;;;;;;3.25;100.00;101655.75;5034184;28;20054;-79
2024/01/26 00:39:00;;;;;;;;;;;;;;;3.27;100.00;101656.38;5053146;28;19940;-78
2024/01/26 00:41:34;;;;;;;;;;;;;;;3.31;100.00;101660.31;5054299;28;19921;-78
2024/01/26 00:44:08;;;;;;;;;;;;;;;3.26;100.00;101649.34;5033361;28;19925;-78
2024/01/26 00:46:41;;;;;;;;;;;;;;;3.31;100.00;101644.16;5023773;28;21605;-78
2024/01/26 00:49:09;;;;;;;;;;;;;;;3.28;100.00;101643.75;5054861;28;19925;-78
2024/01/26 00:51:37;;;;;;;;;;;;;;;3.32;100.00;101634.25;5038211;28;19933;-78
2024/01/26 00:54:10;;;;;;;;;;;;;;;3.38;100.00;101636.94;5036231;28;19921;-79
2024/01/26 00:56:38;;;;;;;;;;;;;;;3.47;100.00;101637.53;5040020;28;19925;-78
2024/01/26 00:59:13;;;;;;;;;;;;;;;3.40;100.00;101631.34;5055015;28;21138;-78
2024/01/26 01:01:46;;;;;;;;;;;;;;;3.42;100.00;101628.44;5035502;28;19921;-78
2024/01/26 01:04:19;;;;;;;;;;;;;;;3.46;100.00;101624.28;5032662;28;19929;-78
2024/01/26 01:06:47;;;;;;;;;;;;;;;3.51;100.00;101627.19;5049701;28;19924;-78
2024/01/26 01:09:20;;;;;;;;;;;;;;;3.57;100.00;101624.47;5033345;28;19931;-78
2024/01/26 01:11:53;;;;;;;;;;;;;;;3.56;100.00;101628.22;5035567;28;19935;-78
2024/01/26 01:14:28;;;;;;;;;;;;;;;3.62;100.00;101628.38;5036034;28;19932;-78
2024/01/26 01:17:01;;;;;;;;;;;;;;;3.65;100.00;101625.31;5027214;28;19928;-78
2024/01/26 01:19:34;;;;;;;;;;;;;;;3.70;100.00;101630.84;5033520;28;19925;-78
2024/01/26 01:22:07;;;;;;;;;;;;;;;3.68;100.00;101624.88;5018547;28;19931;-78
2024/01/26 01:24:40;;;;;;;;;;;;;;;3.67;100.00;101623.22;5020581;28;19921;-78
2024/01/26 01:27:08;;;;;;;;;;;;;;;3.68;100.00;101620.31;5034725;28;19935;-78
2024/01/26 01:29:43;;;;;;;;;;;;;;;3.67;100.00;101615.94;5035187;28;19932;-78
2024/01/26 01:32:16;;;;;;;;;;;;;;;3.70;100.00;101606.63;5032302;28;20377;-78
2024/01/26 01:34:44;;;;;;;;;;;;;;;3.70;100.00;101601.25;5039144;28;19928;-78
2024/01/26 01:37:17;;;;;;;;;;;;;;;3.74;100.00;101606.03;5038139;28;19928;-79
2024/01/26 01:39:50;;;;;;;;;;;;;;;3.72;100.00;101599.19;5038314;28;19941;-78
2024/01/26 01:42:23;;;;;;;;;;;;;;;3.76;100.00;101605.81;5034267;28;19940;-78
2024/01/26 01:44:57;;;;;;;;;;;;;;;3.81;100.00;101600.63;5037570;28;19928;-78
2024/01/26 01:47:30;;;;;;;;;;;;;;;3.80;100.00;101592.72;5041460;28;19921;-78
2024/01/26 01:50:03;;;;;;;;;;;;;;;3.83;100.00;101592.31;5037992;28;19929;-78
2024/01/26 01:52:31;;;;;;;;;;;;;;;3.88;100.00;101585.25;5021639;28;19936;-78
2024/01/26 01:55:00;;;;;;;;;;;;;;;3.90;100.00;101582.34;5038879;28;19936;-78
2024/01/26 01:57:31;;;;;;;;;;;;;;;3.92;100.00;101570.34;5037188;28;19935;-78
2024/01/26 02:00:05;;;;;;;;;;;;;;;3.89;100.00;101565.38;5056109;28;19929;-79
2024/01/26 02:02:39;;;;;;;;;;;;;;;3.88;100.00;101569.09;5038309;28;20056;-78
2024/01/26 02:05:12;;;;;;;;;;;;;;;3.92;100.00;101570.34;5037582;28;20357;-78
2024/01/26 02:07:48;;;;;;;;;;;;;;;3.92;100.00;101578.41;5036724;28;20376;-78
2024/01/26 02:10:16;;;;;;;;;;;;;;;3.92;100.00;101569.47;5041637;28;19928;-78
2024/01/26 02:12:49;;;;;;;;;;;;;;;4.06;100.00;101563.00;5035819;28;19921;-78
2024/01/26 02:15:24;;;;;;;;;;;;;;;4.05;100.00;101560.53;5036961;28;19932;-78
2024/01/26 02:17:52;;;;;;;;;;;;;;;3.98;100.00;101551.63;5037475;28;19935;-79
2024/01/26 02:20:25;;;;;;;;;;;;;;;4.05;100.00;101544.38;5020353;28;19925;-78
2024/01/26 02:22:58;;;;;;;;;;;;;;;4.04;100.00;101540.84;5018483;28;19928;-78
2024/01/26 02:25:27;;;;;;;;;;;;;;;4.00;100.00;101536.09;5036228;28;19931;-78
2024/01/26 02:27:55;;;;;;;;;;;;;;;4.01;100.00;101535.06;5037459;28;20289;-78
2024/01/26 02:30:33;;;;;;;;;;;;;;;3.99;100.00;101532.59;5055020;28;19925;-78
2024/01/26 02:33:06;;;;;;;;;;;;;;;3.96;100.00;101534.88;5052134;28;21180;-78
2024/01/26 02:35:39;;;;;;;;;;;;;;;3.95;100.00;101530.53;5052187;28;21761;-79
2024/01/26 02:38:12;;;;;;;;;;;;;;;3.95;100.00;101523.28;5037182;28;19929;-79
2024/01/26 02:40:41;;;;;;;;;;;;;;;3.91;100.00;101528.28;5040997;28;20384;-78
2024/01/26 02:43:14;;;;;;;;;;;;;;;3.93;100.00;101511.91;5045710;28;19940;-78
2024/01/26 02:45:46;;;;;;;;;;;;;;;3.95;100.00;101512.53;5055771;28;19928;-78
2024/01/26 02:48:23;;;;;;;;;;;;;;;3.92;100.00;101510.25;5035854;28;19929;-79
2024/01/26 02:50:56;;;;;;;;;;;;;;;3.94;100.00;101501.97;5036008;28;19943;-78
2024/01/26 02:53:24;;;;;;;;;;;;;;;3.94;100.00;101496.59;5021292;28;19975;-78
2024/01/26 02:55:58;;;;;;;;;;;;;;;3.96;100.00;101486.41;5054017;28;19944;-78
2024/01/26 02:58:31;;;;;;;;;;;;;;;3.92;100.00;101477.91;5038397;28;20413;-79
2024/01/26 03:01:04;;;;;;;;;;;;;;;3.96;100.00;101481.03;5034049;28;19971;-79
2024/01/26 03:03:32;;;;;;;;;;;;;;;4.04;100.00;101478.06;5037783;28;19936;-78
2024/01/26 03:06:00;;;;;;;;;;;;;;;4.03;100.00;101479.09;5038006;28;20004;-78
2024/01/26 03:08:33;;;;;;;;;;;;;;;3.99;100.00;101467.13;5033873;28;19924;-78
2024/01/26 03:11:03;;;;;;;;;;;;;;;4.01;100.00;101478.50;5039030;28;19921;-78
2024/01/26 03:13:30;;;;;;;;;;;;;;;3.94;100.00;101481.25;5051001;28;19935;-79
2024/01/26 03:16:04;;;;;;;;;;;;;;;3.97;100.00;101474.59;5035596;28;20372;-78
2024/01/26 03:18:37;;;;;;;;;;;;;;;3.96;100.00;101470.25;5033303;28;19925;-79
2024/01/26 03:21:10;;;;;;;;;;;;;;;3.94;100.00;101470.47;5036933;28;19936;-78
2024/01/26 03:23:43;;;;;;;;;;;;;;;4.00;100.00;101474.16;5034157;28;19925;-79
2024/01/26 03:26:17;;;;;;;;;;;;;;;3.97;100.00;101466.53;5036883;28;19935;-78
2024/01/26 03:28:50;;;;;;;;;;;;;;;3.97;100.00;101458.44;5033683;28;19925;-79
2024/01/26 03:31:23;;;;;;;;;;;;;;;3.94;100.00;101448.09;5033926;28;20598;-78
2024/01/26 03:33:51;;;;;;;;;;;;;;;3.91;100.00;101455.56;5021749;28;19929;-79
2024/01/26 03:36:24;;;;;;;;;;;;;;;3.98;100.00;101452.00;5037304;28;19924;-78
2024/01/26 03:38:57;;;;;;;;;;;;;;;3.92;100.00;101449.16;5033673;28;19921;-78
2024/01/26 03:41:31;;;;;;;;;;;;;;;3.92;100.00;101443.75;5039669;28;19929;-78
2024/01/26 03:44:04;;;;;;;;;;;;;;;3.94;100.00;101445.41;5058310;28;19921;-78
2024/01/26 03:46:32;;;;;;;;;;;;;;;3.98;100.00;101454.69;5035671;28;19921;-79
2024/01/26 03:49:05;;;;;;;;;;;;;;;3.96;100.00;101457.59;5036855;28;19936;-78
2024/01/26 03:51:38;;;;;;;;;;;;;;;3.96;100.00;101454.09;5034951;28;19925;-78
2024/01/26 03:54:11;;;;;;;;;;;;;;;3.95;100.00;101439.81;5039687;28;19935;-78
2024/01/26 03:56:45;;;;;;;;;;;;;;;3.94;100.00;101448.91;5037605;28;19932;-78
2024/01/26 03:59:14;;;;;;;;;;;;;;;3.98;100.00;101444.75;5036603;28;20396;-78
2024/01/26 04:01:46;;;;;;;;;;;;;;;3.96;100.00;101440.63;5038174;28;19932;-78
2024/01/26 04:04:14;;;;;;;;;;;;;;;3.95;100.00;101425.50;5034445;28;19924;-79
2024/01/26 04:06:42;;;;;;;;;;;;;;;3.93;100.00;101423.03;5040918;28;20869;-78
2024/01/26 04:09:15;;;;;;;;;;;;;;;3.99;100.00;101424.88;5053665;28;19990;-79
2024/01/26 04:11:43;;;;;;;;;;;;;;;3.95;100.00;101415.56;5038593;28;19931;-78
2024/01/26 04:14:17;;;;;;;;;;;;;;;4.00;100.00;101409.53;5036659;28;19925;-78
2024/01/26 04:16:45;;;;;;;;;;;;;;;4.05;100.00;101412.41;5034350;28;19928;-78
2024/01/26 04:19:19;;;;;;;;;;;;;;;3.99;100.00;101400.63;5039741;28;19931;-79
2024/01/26 04:21:49;;;;;;;;;;;;;;;4.02;100.00;101389.41;5034604;28;20415;-79
2024/01/26 04:24:22;;;;;;;;;;;;;;;4.00;100.00;101387.97;5035400;28;19928;-78
2024/01/26 04:26:55;;;;;;;;;;;;;;;4.03;100.00;101391.06;5036107;28;19927;-79
2024/01/26 04:29:30;;;;;;;;;;;;;;;4.03;100.00;101385.69;5036357;28;20420;-79
2024/01/26 04:31:58;;;;;;;;;;;;;;;3.97;100.00;101389.22;5037182;28;19976;-78
2024/01/26 04:34:26;;;;;;;;;;;;;;;3.98;100.00;101382.81;5038027;28;19929;-78
2024/01/26 04:36:58;;;;;;;;;;;;;;;4.01;100.00;101378.84;5034588;28;19925;-78
2024/01/26 04:39:31;;;;;;;;;;;;;;;3.97;100.00;101375.75;5038259;28;19924;-79
2024/01/26 04:42:05;;;;;;;;;;;;;;;3.97;100.00;101373.06;5037546;28;19929;-78
2024/01/26 04:44:39;;;;;;;;;;;;;;;3.96;100.00;101360.66;5036193;28;19930;-79
2024/01/26 04:47:12;;;;;;;;;;;;;;;3.94;100.00;101357.34;5039176;28;19925;-78
2024/01/26 04:49:45;;;;;;;;;;;;;;;3.95;100.00;101358.19;5038341;28;19928;-78
2024/01/26 04:52:18;;;;;;;;;;;;;;;3.94;100.00;101343.91;5037705;28;19925;-79
2024/01/26 04:54:51;;;;;;;;;;;;;;;3.97;100.00;101343.44;5036322;28;19921;-78
2024/01/26 04:57:19;;;;;;;;;;;;;;;3.97;100.00;101329.97;5037907;28;19935;-78
2024/01/26 04:59:54;;;;;;;;;;;;;;;3.90;100.00;101324.66;5035328;28;19921;-79
2024/01/26 05:02:27;;;;;;;;;;;;;;;3.88;100.00;101326.75;5036997;28;20577;-78
2024/01/26 05:05:00;;;;;;;;;;;;;;;3.87;100.00;101321.59;5038510;28;19932;-78
2024/01/26 05:07:33;;;;;;;;;;;;;;;3.84;100.00;101314.75;5022291;28;20393;-78
2024/01/26 05:10:06;;;;;;;;;;;;;;;3.85;100.00;101329.88;5024168;28;19944;-78
2024/01/26 05:12:34;;;;;;;;;;;;;;;3.91;100.00;101309.34;5041369;28;19924;-79
2024/01/26 05:15:04;;;;;;;;;;;;;;;3.89;100.00;101306.88;5043236;28;19921;-78
2024/01/26 05:17:37;;;;;;;;;;;;;;;3.82;100.00;101297.19;5039042;28;20423;-79
2024/01/26 05:20:10;;;;;;;;;;;;;;;3.82;100.00;101300.69;5042023;28;19936;-78
2024/01/26 05:22:44;;;;;;;;;;;;;;;3.80;100.00;101300.09;5040416;28;19940;-79
2024/01/26 05:25:17;;;;;;;;;;;;;;;3.83;100.00;101302.34;5036387;28;19929;-79
2024/01/26 05:27:50;;;;;;;;;;;;;;;3.82;100.00;101295.28;5043262;28;19928;-78
2024/01/26 05:30:19;;;;;;;;;;;;;;;3.75;100.00;101286.47;5040347;28;20289;-78
2024/01/26 05:32:47;;;;;;;;;;;;;;;3.72;100.00;101271.56;5042274;28;20377;-79
2024/01/26 05:35:15;;;;;;;;;;;;;;;3.74;100.00;101269.50;5039193;28;19928;-79
2024/01/26 05:37:48;;;;;;;;;;;;;;;3.78;100.00;101263.66;5022767;28;19928;-79
2024/01/26 05:40:21;;;;;;;;;;;;;;;3.75;100.00;101256.84;5040521;28;19924;-78
2024/01/26 05:42:54;;;;;;;;;;;;;;;3.79;100.00;101249.97;5041103;28;19925;-78
2024/01/26 05:45:28;;;;;;;;;;;;;;;3.80;100.00;101248.09;5008435;28;19925;-78
2024/01/26 05:48:01;;;;;;;;;;;;;;;3.81;100.00;101244.38;5033644;28;19931;-78
2024/01/26 05:50:35;;;;;;;;;;;;;;;3.87;100.00;101247.00;5041997;28;19929;-78
2024/01/26 05:53:08;;;;;;;;;;;;;;;3.87;100.00;101241.63;5023768;28;19932;-78
2024/01/26 05:55:41;;;;;;;;;;;;;;;3.90;100.00;101232.28;5022853;28;20258;-78
2024/01/26 05:58:16;;;;;;;;;;;;;;;3.91;100.00;101229.34;5039561;28;19956;-79
2024/01/26 06:00:50;;;;;;;;;;;;;;;3.91;100.00;101223.16;5042561;28;19936;-78
2024/01/26 06:03:23;;;;;;;;;;;;;;;3.91;100.00;101209.69;5023330;28;19925;-78
2024/01/26 06:05:51;;;;;;;;;;;;;;;4.01;100.00;101210.00;5034830;28;20376;-78
2024/01/26 06:08:19;;;;;;;;;;;;;;;4.01;100.00;101210.00;5036874;28;19925;-79
2024/01/26 06:10:52;;;;;;;;;;;;;;;4.03;100.00;101212.47;5038184;28;19924;-78
2024/01/26 06:13:20;;;;;;;;;;;;;;;4.05;100.00;101203.13;5023157;28;19924;-78
2024/01/26 06:15:55;;;;;;;;;;;;;;;4.09;100.00;101198.94;5036228;28;19925;-78
2024/01/26 06:18:28;;;;;;;;;;;;;;;4.05;100.00;101180.75;5040620;28;19925;-79
2024/01/26 06:20:55;;;;;;;;;;;;;;;4.03;100.00;101170.22;5028969;28;21574;-78
2024/01/26 06:23:23;;;;;;;;;;;;;;;4.07;100.00;101175.97;5038689;28;19929;-78
2024/01/26 06:25:56;;;;;;;;;;;;;;;4.08;100.00;101167.66;5026694;28;19936;-79
2024/01/26 06:28:29;;;;;;;;;;;;;;;4.08;100.00;101173.03;5036372;28;19929;-78
2024/01/26 06:31:04;;;;;;;;;;;;;;;4.09;100.00;101166.59;5039038;28;19924;-79
2024/01/26 06:33:36;;;;;;;;;;;;;;;4.12;100.00;101142.97;5039136;28;20377;-79
2024/01/26 06:36:12;;;;;;;;;;;;;;;4.18;100.00;101140.19;5040390;28;19929;-79
2024/01/26 06:38:45;;;;;;;;;;;;;;;4.11;100.00;101154.78;5040829;28;19924;-78
2024/01/26 06:41:18;;;;;;;;;;;;;;;4.19;100.00;101151.81;5040874;28;19929;-78
2024/01/26 06:43:51;;;;;;;;;;;;;;;4.16;100.00;101144.19;5036530;28;20009;-78
2024/01/26 06:46:25;;;;;;;;;;;;;;;4.15;100.00;101139.81;5056900;28;20301;-78
2024/01/26 06:48:53;;;;;;;;;;;;;;;4.21;100.00;101138.91;5027234;28;19924;-78
2024/01/26 06:51:21;;;;;;;;;;;;;;;4.25;100.00;101134.72;5036021;28;19920;-78
2024/01/26 06:53:55;;;;;;;;;;;;;;;4.23;100.00;101131.44;5041334;28;19928;-79
2024/01/26 06:56:28;;;;;;;;;;;;;;;4.26;100.00;101129.09;5037229;28;20404;-79
2024/01/26 06:58:56;;;;;;;;;;;;;;;4.24;100.00;101117.75;5042727;28;19925;-79
2024/01/26 07:01:30;;;;;;;;;;;;;;;4.28;100.00;101093.03;5036798;28;20008;-78
2024/01/26 07:04:03;;;;;;;;;;;;;;;4.28;100.00;101114.59;5039982;28;19936;-79
2024/01/26 07:06:36;;;;;;;;;;;;;;;4.35;100.00;101128.78;5040192;28;20754;-78
2024/01/26 07:09:04;;;;;;;;;;;;;;;4.37;100.00;101127.50;5020306;28;20309;-78
2024/01/26 07:11:32;;;;;;;;;;;;;;;4.34;100.00;101095.63;5024705;28;19921;-79
2024/01/26 07:14:05;;;;;;;;;;;;;;;4.38;100.00;101088.75;5039169;28;19925;-79
2024/01/26 07:16:34;;;;;;;;;;;;;;;4.41;100.00;101090.97;5039486;28;20031;-79
2024/01/26 07:19:07;;;;;;;;;;;;;;;4.42;100.00;101086.44;5044186;28;19925;-79
2024/01/26 07:21:40;;;;;;;;;;;;;;;4.45;100.00;101080.56;5052095;28;19936;-79
2024/01/26 07:24:13;;;;;;;;;;;;;;;4.50;100.00;101067.25;5038165;28;19928;-79
2024/01/26 07:26:41;;;;;;;;;;;;;;;4.49;100.00;101060.19;5036884;28;19932;-79
2024/01/26 07:29:09;;;;;;;;;;;;;;;4.51;100.00;101059.97;5035186;28;20284;-79
2024/01/26 07:31:44;;;;;;;;;;;;;;;4.55;100.00;101043.09;5037515;28;19925;-79
2024/01/26 07:34:17;;;;;;;;;;;;;;;4.54;100.00;101019.91;5038620;28;19929;-79
2024/01/26 07:36:50;;;;;;;;;;;;;;;4.60;100.00;101026.25;5022473;28;19929;-79
2024/01/26 07:39:23;;;;;;;;;;;;;;;4.58;100.00;101034.56;5036828;28;19924;-79
2024/01/26 07:41:56;;;;;;;;;;;;;;;4.63;100.00;101024.94;5039402;28;19928;-79
2024/01/26 07:44:29;;;;;;;;;;;;;;;4.66;100.00;101019.91;5035795;28;19924;-81
2024/01/26 07:46:58;;;;;;;;;;;;;;;4.71;100.00;101011.97;5032768;28;19947;-78
2024/01/26 07:49:26;;;;;;;;;;;;;;;4.74;100.00;101006.09;5035735;28;19936;-78
2024/01/26 07:51:54;;;;;;;;;;;;;;;4.81;100.00;101003.28;5031445;28;19921;-79
2024/01/26 07:54:27;;;;;;;;;;;;;;;4.89;100.00;100986.75;5018040;28;19929;-80
2024/01/26 07:57:01;;;;;;;;;;;;;;;4.86;100.00;100984.53;5048423;28;20380;-77
2024/01/26 07:59:29;;;;;;;;;;;;;;;4.92;100.00;100970.09;5037743;28;19924;-78
2024/01/26 08:01:56;;;;;;;;;;;;;;;4.93;100.00;100968.25;5028906;28;19932;-79
2024/01/26 08:04:26;;;;;;;;;;;;;;;4.99;100.00;100966.50;5036281;28;19920;-80
2024/01/26 08:06:59;;;;;;;;;;;;;;;5.00;100.00;100973.50;5035791;28;19943;-78
2024/01/26 08:09:32;;;;;;;;;;;;;;;5.00;100.00;100968.94;5036826;28;19929;-78
2024/01/26 08:11:59;;;;;;;;;;;;;;;4.99;100.00;100967.28;5039600;28;19928;-79
2024/01/26 08:14:33;;;;;;;;;;;;;;;5.00;100.00;100947.38;5035800;28;20688;-79
2024/01/26 08:17:06;;;;;;;;;;;;;;;5.06;100.00;100945.59;5039121;28;19947;-79
2024/01/26 08:19:40;;;;;;;;;;;;;;;5.09;100.00;100937.03;5048499;28;19932;-81
2024/01/26 08:22:08;;;;;;;;;;;;;;;5.15;100.00;100921.75;5033552;28;19924;-78
2024/01/26 08:24:36;;;;;;;;;;;;;;;5.16;100.00;100923.41;5031053;28;20740;-78
2024/01/26 08:27:09;;;;;;;;;;;;;;;5.22;100.00;100920.59;5027500;28;19936;-78
2024/01/26 08:29:40;;;;;;;;;;;;;;;5.30;100.00;100908.59;5019309;28;19932;-78
2024/01/26 08:32:13;;;;;;;;;;;;;;;5.35;100.00;100902.50;5034775;28;19924;-78
2024/01/26 08:34:42;;;;;;;;;;;;;;;5.39;100.00;100903.66;5022114;28;19924;-78
2024/01/26 08:37:11;;;;;;;;;;;;;;;5.45;100.00;100897.28;5034918;28;19931;-78
2024/01/26 08:39:44;;;;;;;;;;;;;;;5.55;100.00;100911.00;5027469;28;19929;-78
2024/01/26 08:42:17;;;;;;;;;;;;;;;5.56;100.00;100896.41;4999641;28;21745;-79
2024/01/26 08:44:50;;;;;;;;;;;;;;;5.66;100.00;100881.47;5030935;28;19944;-79
2024/01/26 08:47:23;;;;;;;;;;;;;;;5.64;100.00;100880.91;5017289;28;19929;-79
2024/01/26 08:49:57;;;;;;;;;;;;;;;5.70;100.00;100875.34;5023145;28;19928;-79
2024/01/26 08:52:25;;;;;;;;;;;;;;;5.71;100.00;100874.28;5011245;28;19941;-79
2024/01/26 08:54:58;;;;;;;;;;;;;;;5.79;100.00;100867.69;5008698;28;19935;-79
2024/01/26 08:57:26;;;;;;;;;;;;;;;5.85;100.00;100857.78;5000077;28;19928;-79
2024/01/26 08:59:54;;;;;;;;;;;;;;;5.91;100.00;100845.97;5016492;28;19936;-79
2024/01/26 09:02:28;;;;;;;;;;;;;;;5.98;100.00;100835.91;5015874;28;19929;-79
2024/01/26 09:05:02;;;;;;;;;;;;;;;6.00;100.00;100825.66;4982289;28;21592;-78
2024/01/26 09:07:30;;;;;;;;;;;;;;;6.06;100.00;100811.16;5013461;28;19929;-78
2024/01/26 09:10:03;;;;;;;;;;;;;;;6.10;100.00;100814.19;5018574;28;19936;-79
2024/01/26 09:12:36;;;;;;;;;;;;;;;6.20;100.00;100798.13;5019168;28;20649;-79
2024/01/26 09:15:10;;;;;;;;;;;;;;;6.24;100.00;100788.47;5017809;28;20011;-80
2024/01/26 09:17:43;;;;;;;;;;;;;;;6.25;100.00;100784.69;5010720;28;19943;-78
2024/01/26 09:20:13;;;;;;;;;;;;;;;6.35;100.00;100786.69;4994311;28;20348;-78
2024/01/26 09:22:45;;;;;;;;;;;;;;;6.36;100.00;100782.94;5012176;28;20308;-78
2024/01/26 09:25:21;;;;;;;;;;;;;;;6.40;100.00;100770.56;5030900;28;19936;-78
2024/01/26 09:27:49;;;;;;;;;;;;;;;6.48;100.00;100766.63;4999126;28;19932;-78
2024/01/26 09:30:17;;;;;;;;;;;;;;;6.53;100.00;100761.28;5027459;28;19929;-78
2024/01/26 09:32:45;;;;;;;;;;;;;;;6.61;100.00;100757.31;5006616;28;19999;-79
2024/01/26 09:35:15;;;;;;;;;;;;;;;6.58;100.00;100752.41;5009201;28;19943;-78
2024/01/26 09:37:48;;;;;;;;;;;;;;;6.64;100.00;100754.09;5009231;28;19928;-78
2024/01/26 09:40:23;;;;;;;;;;;;;;;6.69;100.00;100748.75;5016281;28;19924;-79
2024/01/26 09:42:56;;;;;;;;;;;;;;;6.73;100.00;100741.78;4997630;28;19963;-79
2024/01/26 09:45:29;;;;;;;;;;;;;;;6.71;100.00;100737.69;5018990;28;19967;-79
2024/01/26 09:48:05;;;;;;;;;;;;;;;6.74;100.00;100732.59;5016001;28;19952;-79
2024/01/26 09:50:35;;;;;;;;;;;;;;;6.78;100.00;100731.03;5011268;28;19951;-79
2024/01/26 09:53:09;;;;;;;;;;;;;;;6.79;100.00;100718.31;5022079;28;20741;-80
2024/01/26 09:55:39;;;;;;;;;;;;;;;6.87;100.00;100708.94;5017696;28;19936;-80
2024/01/26 09:58:08;;;;;;;;;;;;;;;6.85;100.00;100719.19;5038162;28;19928;-79
2024/01/26 10:00:41;;;;;;;;;;;;;;;6.87;100.00;100707.03;5026825;28;19929;-79
2024/01/26 10:03:14;;;;;;;;;;;;;;;6.87;100.00;100709.75;5019644;28;19964;-79
2024/01/26 10:05:49;;;;;;;;;;;;;;;6.95;100.00;100701.16;5000917;28;20522;-80
2024/01/26 10:08:16;;;;;;;;;;;;;;;6.97;100.00;100695.50;5016579;28;19931;-79
2024/01/26 10:10:49;;;;;;;;;;;;;;;7.00;100.00;100689.56;5015754;28;19929;-79
2024/01/26 10:13:23;;;;;;;;;;;;;;;6.97;100.00;100685.50;5017032;28;19929;-79
2024/01/26 10:15:51;;;;;;;;;;;;;;;7.05;100.00;100684.22;5014953;28;19960;-80
2024/01/26 10:18:19;;;;;;;;;;;;;;;7.06;100.00;100687.75;5013195;28;20309;-80
2024/01/26 10:20:48;;;;;;;;;;;;;;;7.11;100.00;100683.22;5016991;28;19928;-79
2024/01/26 10:23:21;;;;;;;;;;;;;;;7.09;100.00;100676.41;5017739;28;19936;-80
2024/01/26 10:25:50;;;;;;;;;;;;;;;7.15;100.00;100659.97;5015662;28;19929;-79
2024/01/26 10:28:18;;;;;;;;;;;;;;;7.20;100.00;100661.09;5036211;28;20369;-80
2024/01/26 10:30:46;;;;;;;;;;;;;;;7.18;100.00;100657.81;5006799;28;20919;-80
2024/01/26 10:33:14;;;;;;;;;;;;;;;7.21;100.00;100665.41;5008241;28;19928;-79
2024/01/26 10:35:50;;;;;;;;;;;;;;;7.26;100.00;100638.38;5014693;28;19936;-80
2024/01/26 10:38:23;;;;;;;;;;;;;;;7.28;100.00;100641.66;5014648;28;19928;-80
2024/01/26 10:40:55;;;;;;;;;;;;;;;7.35;100.00;100634.13;4999585;28;20484;-79
2024/01/26 10:43:23;;;;;;;;;;;;;;;7.38;100.00;100621.97;4983147;28;19936;-80
2024/01/26 10:45:52;;;;;;;;;;;;;;;7.41;100.00;100602.50;5007091;28;19928;-79
2024/01/26 10:48:25;;;;;;;;;;;;;;;7.47;100.00;100596.03;5018586;28;21129;-80
2024/01/26 10:51:00;;;;;;;;;;;;;;;7.45;100.00;100596.28;5007734;28;19928;-80
2024/01/26 10:53:34;;;;;;;;;;;;;;;7.49;100.00;100591.19;5010490;28;19935;-80
2024/01/26 10:56:04;;;;;;;;;;;;;;;7.47;100.00;100585.19;5009768;28;19924;-79
2024/01/26 10:58:37;;;;;;;;;;;;;;;7.50;100.00;100582.00;5008107;28;19937;-80
2024/01/26 11:01:06;;;;;;;;;;;;;;;7.51;100.00;100566.53;5029164;28;19932;-80
2024/01/26 11:03:34;;;;;;;;;;;;;;;7.57;100.00;100557.38;5012484;28;19931;-80
2024/01/26 11:06:09;;;;;;;;;;;;;;;7.56;100.00;100558.47;5015445;28;19936;-79
2024/01/26 11:08:42;;;;;;;;;;;;;;;7.60;100.00;100559.56;5014719;28;19929;-81
2024/01/26 11:11:11;;;;;;;;;;;;;;;7.66;100.00;100559.34;5013895;28;20520;-80
2024/01/26 11:13:52;;;;;;;;;;;;;;;7.66;100.00;100545.78;4998910;28;19929;-79
2024/01/26 11:16:23;;;;;;;;;;;;;;;7.77;100.00;100540.41;5015623;28;20472;-79
2024/01/26 11:18:57;;;;;;;;;;;;;;;7.81;100.00;100542.31;5020380;28;19928;-79
2024/01/26 11:21:39;;;;;;;;;;;;;;;7.86;100.00;100525.28;5003336;28;19928;-80
2024/01/26 11:24:14;;;;;;;;;;;;;;;7.85;100.00;100525.53;5009025;28;19995;-79
2024/01/26 11:26:42;;;;;;;;;;;;;;;7.86;100.00;100505.47;5002913;28;20431;-79
2024/01/26 11:29:15;;;;;;;;;;;;;;;7.91;100.00;100519.88;5007650;28;19929;-79
2024/01/26 11:31:48;;;;;;;;;;;;;;;7.90;100.00;100509.28;5013052;28;20324;-79
2024/01/26 11:34:21;;;;;;;;;;;;;;;7.95;100.00;100509.31;4998207;28;19929;-80
2024/01/26 11:37:05;;;;;;;;;;;;;;;7.99;100.00;100505.00;4999171;28;19936;-80
2024/01/26 11:39:38;;;;;;;;;;;;;;;8.03;100.00;100502.56;5012060;28;21407;-79
2024/01/26 11:42:12;;;;;;;;;;;;;;;8.08;100.00;100505.28;4991997;28;19935;-79
2024/01/26 11:44:49;;;;;;;;;;;;;;;8.10;100.00;100495.78;5015181;28;19929;-80
2024/01/26 11:47:22;;;;;;;;;;;;;;;8.10;100.00;100487.66;5013646;28;19929;-80
2024/01/26 11:49:50;;;;;;;;;;;;;;;8.14;100.00;100486.03;5015117;28;19928;-80
2024/01/26 11:52:24;;;;;;;;;;;;;;;8.22;100.00;100476.59;5013830;28;19936;-80
2024/01/26 11:54:52;;;;;;;;;;;;;;;8.29;100.00;100468.19;5020691;28;19928;-80
2024/01/26 11:57:25;;;;;;;;;;;;;;;8.32;100.00;100463.03;5034692;28;19939;-80
2024/01/26 11:59:59;;;;;;;;;;;;;;;8.41;100.00;100463.31;5014583;28;20702;-80
2024/01/26 12:02:33;;;;;;;;;;;;;;;8.38;100.00;100474.69;4990518;28;19928;-79
2024/01/26 12:05:06;;;;;;;;;;;;;;;8.44;100.00;100460.06;5016390;28;19935;-78
2024/01/26 12:07:36;;;;;;;;;;;;;;;8.44;100.00;100464.69;5018613;28;19952;-80
2024/01/26 12:10:12;;;;;;;;;;;;;;;8.48;100.00;100482.06;5014566;28;19940;-81
2024/01/26 12:12:41;;;;;;;;;;;;;;;8.55;100.00;100484.50;5018153;28;19936;-80
2024/01/26 12:15:13;;;;;;;;;;;;;;;8.52;100.00;100518.41;5029102;28;19952;-80
2024/01/26 12:17:42;;;;;;;;;;;;;;;8.28;100.00;100550.59;5036022;28;19935;-82
2024/01/26 12:20:15;;;;;;;;;;;;;;;8.27;100.00;100552.50;5023400;28;19928;-83
2024/01/26 12:22:50;;;;;;;;;;;;;;;8.23;100.00;100545.16;5000668;28;19936;-82
2024/01/26 12:25:27;;;;;;;;;;;;;;;8.10;100.00;100563.56;4998150;28;19928;-83
2024/01/26 12:28:02;;;;;;;;;;;;;;;7.99;100.00;100589.81;5004515;28;19929;-79
2024/01/26 12:30:35;;;;;;;;;;;;;;;7.80;100.00;100586.75;5015927;28;19928;-80
2024/01/26 12:33:06;;;;;;;;;;;;;;;7.63;100.00;100570.66;5017103;28;19935;-80
2024/01/26 12:35:35;;;;;;;;;;;;;;;7.59;100.00;100588.53;5028986;28;19929;-80
2024/01/26 12:38:04;;;;;;;;;;;;;;;7.59;100.00;100604.78;5019988;28;19929;-80
2024/01/26 12:40:37;;;;;;;;;;;;;;;7.56;100.00;100615.31;5012875;28;21363;-79
2024/01/26 12:43:05;;;;;;;;;;;;;;;7.43;100.00;100603.88;4990329;28;19935;-80
2024/01/26 12:45:38;;;;;;;;;;;;;;;7.31;100.00;100614.06;4999955;28;19928;-79
2024/01/26 12:48:11;;;;;;;;;;;;;;;7.23;100.00;100634.31;5017589;28;19936;-80
2024/01/26 12:50:44;;;;;;;;;;;;;;;7.11;100.00;100656.16;5036255;28;19932;-79
2024/01/26 12:53:19;;;;;;;;;;;;;;;7.13;100.00;100664.81;5017924;28;19929;-79
2024/01/26 12:55:46;;;;;;;;;;;;;;;7.02;100.00;100668.50;5023596;28;19933;-79
2024/01/26 12:58:17;;;;;;;;;;;;;;;6.98;100.00;100657.38;5022391;28;19927;-79